sensor_id;sensor_type;location;lat;lon;timestamp;pressure;altitude;pressure_sealevel;temperature;humidity
55733;BME280;41637;52.364;9.910;2023-02-28T00:00:55;102411.54;;;-0.30;78.99
55733;BME280;41637;52.364;9.910;2023-02-28T00:03:22;102409.88;;;-0.31;79.32
55733;BME280;41637;52.364;9.910;2023-02-28T00:05:49;102411.52;;;-0.33;79.40
55733;BME280;41637;52.364;9.910;2023-02-28T00:08:19;102411.33;;;-0.33;79.72
55733;BME280;41637;52.364;9.910;2023-02-28T00:10:45;102410.38;;;-0.31;80.16
55733;BME280;41637;52.364;9.910;2023-02-28T00:13:15;102410.23;;;-0.28;80.24
55733;BME280;41637;52.364;9.910;2023-02-28T00:15:45;102409.17;;;-0.23;80.29
55733;BME280;41637;52.364;9.910;2023-02-28T00:18:12;102406.23;;;-0.19;80.47
55733;BME280;41637;52.364;9.910;2023-02-28T00:20:39;102405.09;;;-0.16;80.40
55733;BME280;41637;52.364;9.910;2023-02-28T00:23:06;102403.64;;;-0.15;80.30
55733;BME280;41637;52.364;9.910;2023-02-28T00:25:33;102403.17;;;-0.12;80.45
55733;BME280;41637;52.364;9.910;2023-02-28T00:28:00;102400.48;;;-0.10;80.35
55733;BME280;41637;52.364;9.910;2023-02-28T00:30:27;102399.21;;;-0.09;80.48
55733;BME280;41637;52.364;9.910;2023-02-28T00:32:54;102399.08;;;-0.10;80.52
55733;BME280;41637;52.364;9.910;2023-02-28T00:35:23;102399.57;;;-0.09;80.46
55733;BME280;41637;52.364;9.910;2023-02-28T00:37:50;102397.52;;;-0.10;80.47
55733;BME280;41637;52.364;9.910;2023-02-28T00:40:17;102396.60;;;-0.09;80.68
55733;BME280;41637;52.364;9.910;2023-02-28T00:42:44;102395.16;;;-0.08;80.55
55733;BME280;41637;52.364;9.910;2023-02-28T00:45:11;102396.02;;;-0.07;80.59
55733;BME280;41637;52.364;9.910;2023-02-28T00:47:38;102397.44;;;-0.09;80.50
55733;BME280;41637;52.364;9.910;2023-02-28T00:50:05;102394.90;;;-0.10;80.44
55733;BME280;41637;52.364;9.910;2023-02-28T00:52:32;102397.27;;;-0.13;80.44
55733;BME280;41637;52.364;9.910;2023-02-28T00:54:59;102401.38;;;-0.19;80.27
55733;BME280;41637;52.364;9.910;2023-02-28T00:57:26;102399.88;;;-0.25;80.49
55733;BME280;41637;52.364;9.910;2023-02-28T00:59:53;102401.95;;;-0.33;80.28
55733;BME280;41637;52.364;9.910;2023-02-28T01:02:23;102401.27;;;-0.42;80.39
55733;BME280;41637;52.364;9.910;2023-02-28T01:04:50;102404.58;;;-0.51;80.54
55733;BME280;41637;52.364;9.910;2023-02-28T01:07:17;102400.34;;;-0.58;80.67
55733;BME280;41637;52.364;9.910;2023-02-28T01:09:44;102403.40;;;-0.66;80.82
55733;BME280;41637;52.364;9.910;2023-02-28T01:12:11;102403.35;;;-0.73;81.09
55733;BME280;41637;52.364;9.910;2023-02-28T01:14:38;102402.39;;;-0.79;81.24
55733;BME280;41637;52.364;9.910;2023-02-28T01:17:05;102403.75;;;-0.88;81.19
55733;BME280;41637;52.364;9.910;2023-02-28T01:19:32;102401.30;;;-0.96;81.34
55733;BME280;41637;52.364;9.910;2023-02-28T01:22:04;102400.29;;;-1.07;81.63
55733;BME280;41637;52.364;9.910;2023-02-28T01:24:31;102402.02;;;-1.16;81.60
55733;BME280;41637;52.364;9.910;2023-02-28T01:27:00;102402.98;;;-1.23;81.79
55733;BME280;41637;52.364;9.910;2023-02-28T01:29:27;102400.48;;;-1.31;82.12
55733;BME280;41637;52.364;9.910;2023-02-28T01:31:53;102403.38;;;-1.39;82.28
55733;BME280;41637;52.364;9.910;2023-02-28T01:34:20;102413.02;;;-1.46;82.64
55733;BME280;41637;52.364;9.910;2023-02-28T01:36:47;102410.13;;;-1.53;82.69
55733;BME280;41637;52.364;9.910;2023-02-28T01:39:15;102406.00;;;-1.59;82.70
55733;BME280;41637;52.364;9.910;2023-02-28T01:41:41;102403.39;;;-1.64;82.81
55733;BME280;41637;52.364;9.910;2023-02-28T01:44:55;102401.55;;;-1.71;83.00
55733;BME280;41637;52.364;9.910;2023-02-28T01:47:28;102396.13;;;-1.79;83.04
55733;BME280;41637;52.364;9.910;2023-02-28T01:49:56;102397.83;;;-1.83;83.19
55733;BME280;41637;52.364;9.910;2023-02-28T01:52:23;102400.74;;;-1.88;83.51
55733;BME280;41637;52.364;9.910;2023-02-28T01:54:54;102398.56;;;-1.94;83.36
55733;BME280;41637;52.364;9.910;2023-02-28T01:57:24;102404.20;;;-2.02;83.50
55733;BME280;41637;52.364;9.910;2023-02-28T02:00:03;102400.40;;;-2.08;83.99
55733;BME280;41637;52.364;9.910;2023-02-28T02:02:33;102399.05;;;-2.15;84.27
55733;BME280;41637;52.364;9.910;2023-02-28T02:05:07;102398.35;;;-2.19;84.40
55733;BME280;41637;52.364;9.910;2023-02-28T02:07:38;102399.91;;;-2.25;84.46
55733;BME280;41637;52.364;9.910;2023-02-28T02:10:21;102398.34;;;-2.30;84.66
55733;BME280;41637;52.364;9.910;2023-02-28T02:14:01;102394.73;;;-2.36;84.96
55733;BME280;41637;52.364;9.910;2023-02-28T02:18:57;102391.11;;;-2.48;85.40
55733;BME280;41637;52.364;9.910;2023-02-28T02:34:26;102375.42;;;-2.72;86.37
55733;BME280;41637;52.364;9.910;2023-02-28T02:37:18;102374.64;;;-2.75;86.41
55733;BME280;41637;52.364;9.910;2023-02-28T02:39:58;102369.89;;;-2.78;86.36
55733;BME280;41637;52.364;9.910;2023-02-28T02:43:01;102372.70;;;-2.79;86.52
55733;BME280;41637;52.364;9.910;2023-02-28T02:46:04;102372.92;;;-2.81;86.65
55733;BME280;41637;52.364;9.910;2023-02-28T02:48:31;102373.38;;;-2.84;86.54
55733;BME280;41637;52.364;9.910;2023-02-28T02:51:02;102372.08;;;-2.87;86.77
55733;BME280;41637;52.364;9.910;2023-02-28T02:53:34;102375.47;;;-2.91;87.11
55733;BME280;41637;52.364;9.910;2023-02-28T02:56:03;102376.76;;;-2.94;87.33
55733;BME280;41637;52.364;9.910;2023-02-28T02:58:35;102378.39;;;-2.96;87.29
55733;BME280;41637;52.364;9.910;2023-02-28T03:01:12;102374.67;;;-2.98;87.54
55733;BME280;41637;52.364;9.910;2023-02-28T03:03:40;102380.48;;;-3.01;87.67
55733;BME280;41637;52.364;9.910;2023-02-28T03:06:07;102377.95;;;-3.04;87.77
55733;BME280;41637;52.364;9.910;2023-02-28T03:08:37;102375.80;;;-3.08;87.84
55733;BME280;41637;52.364;9.910;2023-02-28T03:11:06;102372.58;;;-3.10;87.87
55733;BME280;41637;52.364;9.910;2023-02-28T03:33:13;102370.38;;;-3.23;88.23
55733;BME280;41637;52.364;9.910;2023-02-28T03:35:45;102370.41;;;-3.24;88.16
55733;BME280;41637;52.364;9.910;2023-02-28T03:38:20;102371.32;;;-3.25;88.12
55733;BME280;41637;52.364;9.910;2023-02-28T03:40:51;102370.31;;;-3.26;88.20
55733;BME280;41637;52.364;9.910;2023-02-28T03:43:31;102373.10;;;-3.28;88.22
55733;BME280;41637;52.364;9.910;2023-02-28T03:46:02;102372.95;;;-3.29;88.34
55733;BME280;41637;52.364;9.910;2023-02-28T03:48:53;102369.17;;;-3.30;88.47
55733;BME280;41637;52.364;9.910;2023-02-28T03:51:23;102367.78;;;-3.29;88.46
55733;BME280;41637;52.364;9.910;2023-02-28T03:53:53;102369.35;;;-3.30;88.57
55733;BME280;41637;52.364;9.910;2023-02-28T03:56:26;102365.23;;;-3.31;88.45
55733;BME280;41637;52.364;9.910;2023-02-28T03:59:01;102366.15;;;-3.33;88.33
55733;BME280;41637;52.364;9.910;2023-02-28T04:01:38;102366.21;;;-3.35;88.40
55733;BME280;41637;52.364;9.910;2023-02-28T04:04:05;102370.64;;;-3.38;88.55
55733;BME280;41637;52.364;9.910;2023-02-28T04:06:33;102374.99;;;-3.39;88.70
55733;BME280;41637;52.364;9.910;2023-02-28T04:09:01;102371.21;;;-3.40;88.60
55733;BME280;41637;52.364;9.910;2023-02-28T04:11:44;102372.09;;;-3.41;88.73
55733;BME280;41637;52.364;9.910;2023-02-28T04:14:12;102374.91;;;-3.43;88.92
55733;BME280;41637;52.364;9.910;2023-02-28T04:16:44;102375.88;;;-3.46;88.63
55733;BME280;41637;52.364;9.910;2023-02-28T04:19:12;102375.41;;;-3.48;88.70
55733;BME280;41637;52.364;9.910;2023-02-28T04:21:50;102376.05;;;-3.52;88.55
55733;BME280;41637;52.364;9.910;2023-02-28T04:24:22;102378.55;;;-3.55;88.33
55733;BME280;41637;52.364;9.910;2023-02-28T04:26:54;102377.38;;;-3.57;88.35
55733;BME280;41637;52.364;9.910;2023-02-28T04:29:27;102381.42;;;-3.59;88.31
55733;BME280;41637;52.364;9.910;2023-02-28T04:31:55;102380.96;;;-3.61;88.34
55733;BME280;41637;52.364;9.910;2023-02-28T04:34:28;102381.75;;;-3.64;88.46
55733;BME280;41637;52.364;9.910;2023-02-28T04:36:57;102383.19;;;-3.66;88.60
55733;BME280;41637;52.364;9.910;2023-02-28T04:39:40;102384.60;;;-3.68;88.58
55733;BME280;41637;52.364;9.910;2023-02-28T04:42:08;102383.40;;;-3.68;88.76
55733;BME280;41637;52.364;9.910;2023-02-28T04:44:35;102386.69;;;-3.68;88.75
55733;BME280;41637;52.364;9.910;2023-02-28T04:47:03;102387.61;;;-3.71;88.62
55733;BME280;41637;52.364;9.910;2023-02-28T04:49:30;102388.86;;;-3.72;88.87
55733;BME280;41637;52.364;9.910;2023-02-28T04:51:57;102387.85;;;-3.73;88.84
55733;BME280;41637;52.364;9.910;2023-02-28T04:54:24;102387.02;;;-3.74;88.65
55733;BME280;41637;52.364;9.910;2023-02-28T04:56:51;102387.41;;;-3.76;88.65
55733;BME280;41637;52.364;9.910;2023-02-28T04:59:18;102389.35;;;-3.78;88.82
55733;BME280;41637;52.364;9.910;2023-02-28T05:01:47;102388.54;;;-3.79;88.86
55733;BME280;41637;52.364;9.910;2023-02-28T05:04:14;102391.01;;;-3.81;88.68
55733;BME280;41637;52.364;9.910;2023-02-28T05:06:42;102392.67;;;-3.85;88.78
55733;BME280;41637;52.364;9.910;2023-02-28T05:09:09;102394.89;;;-3.91;88.88
55733;BME280;41637;52.364;9.910;2023-02-28T05:11:38;102402.56;;;-3.94;89.44
55733;BME280;41637;52.364;9.910;2023-02-28T05:14:10;102404.55;;;-3.97;90.27
55733;BME280;41637;52.364;9.910;2023-02-28T05:16:38;102402.63;;;-3.96;90.60
55733;BME280;41637;52.364;9.910;2023-02-28T05:19:05;102404.10;;;-3.93;90.65
55733;BME280;41637;52.364;9.910;2023-02-28T05:21:34;102407.14;;;-3.90;90.69
55733;BME280;41637;52.364;9.910;2023-02-28T05:24:06;102407.96;;;-3.89;90.92
55733;BME280;41637;52.364;9.910;2023-02-28T05:26:41;102403.08;;;-3.87;90.90
55733;BME280;41637;52.364;9.910;2023-02-28T05:29:09;102400.77;;;-3.84;91.00
55733;BME280;41637;52.364;9.910;2023-02-28T05:31:36;102404.36;;;-3.83;90.95
55733;BME280;41637;52.364;9.910;2023-02-28T05:34:04;102404.10;;;-3.80;90.65
55733;BME280;41637;52.364;9.910;2023-02-28T05:36:32;102405.64;;;-3.79;90.81
55733;BME280;41637;52.364;9.910;2023-02-28T05:38:59;102408.77;;;-3.80;90.74
55733;BME280;41637;52.364;9.910;2023-02-28T05:41:26;102411.86;;;-3.79;90.52
55733;BME280;41637;52.364;9.910;2023-02-28T05:43:54;102404.95;;;-3.79;90.52
55733;BME280;41637;52.364;9.910;2023-02-28T05:46:21;102410.13;;;-3.79;90.31
55733;BME280;41637;52.364;9.910;2023-02-28T05:48:47;102410.55;;;-3.82;90.02
55733;BME280;41637;52.364;9.910;2023-02-28T05:51:15;102410.40;;;-3.82;89.95
55733;BME280;41637;52.364;9.910;2023-02-28T05:53:42;102410.61;;;-3.83;89.97
55733;BME280;41637;52.364;9.910;2023-02-28T05:56:09;102410.65;;;-3.85;89.89
55733;BME280;41637;52.364;9.910;2023-02-28T05:58:36;102411.60;;;-3.89;89.82
55733;BME280;41637;52.364;9.910;2023-02-28T06:03:52;102416.05;;;-3.94;89.87
55733;BME280;41637;52.364;9.910;2023-02-28T06:06:20;102413.54;;;-3.97;89.76
55733;BME280;41637;52.364;9.910;2023-02-28T06:08:46;102414.10;;;-3.98;89.98
55733;BME280;41637;52.364;9.910;2023-02-28T06:11:14;102414.66;;;-4.00;89.93
55733;BME280;41637;52.364;9.910;2023-02-28T06:13:40;102419.87;;;-4.01;89.85
55733;BME280;41637;52.364;9.910;2023-02-28T06:16:10;102419.75;;;-4.04;89.91
55733;BME280;41637;52.364;9.910;2023-02-28T06:18:37;102420.15;;;-4.05;89.96
55733;BME280;41637;52.364;9.910;2023-02-28T06:21:04;102421.88;;;-4.06;90.20
55733;BME280;41637;52.364;9.910;2023-02-28T06:23:31;102419.98;;;-4.06;90.16
55733;BME280;41637;52.364;9.910;2023-02-28T06:26:01;102418.08;;;-4.06;90.21
55733;BME280;41637;52.364;9.910;2023-02-28T06:28:28;102420.65;;;-4.05;90.27
55733;BME280;41637;52.364;9.910;2023-02-28T06:30:55;102424.21;;;-4.02;90.35
55733;BME280;41637;52.364;9.910;2023-02-28T06:33:22;102425.84;;;-3.98;90.44
55733;BME280;41637;52.364;9.910;2023-02-28T06:35:50;102431.95;;;-3.94;90.74
55733;BME280;41637;52.364;9.910;2023-02-28T06:38:19;102427.45;;;-3.87;90.97
55733;BME280;41637;52.364;9.910;2023-02-28T06:40:56;102434.20;;;-3.80;90.95
55733;BME280;41637;52.364;9.910;2023-02-28T06:43:24;102432.94;;;-3.72;90.86
55733;BME280;41637;52.364;9.910;2023-02-28T06:45:55;102433.83;;;-3.66;90.49
55733;BME280;41637;52.364;9.910;2023-02-28T06:48:22;102443.36;;;-3.60;90.63
55733;BME280;41637;52.364;9.910;2023-02-28T06:50:49;102442.83;;;-3.53;90.49
55733;BME280;41637;52.364;9.910;2023-02-28T06:53:17;102449.87;;;-3.45;90.57
55733;BME280;41637;52.364;9.910;2023-02-28T06:55:44;102457.67;;;-3.39;90.27
55733;BME280;41637;52.364;9.910;2023-02-28T06:58:14;102461.15;;;-3.34;90.21
55733;BME280;41637;52.364;9.910;2023-02-28T07:00:44;102463.25;;;-3.28;90.19
55733;BME280;41637;52.364;9.910;2023-02-28T07:03:12;102458.76;;;-3.21;90.27
55733;BME280;41637;52.364;9.910;2023-02-28T07:05:39;102454.85;;;-3.12;90.38
55733;BME280;41637;52.364;9.910;2023-02-28T07:08:11;102468.61;;;-2.96;90.67
55733;BME280;41637;52.364;9.910;2023-02-28T07:10:39;102464.02;;;-2.75;90.69
55733;BME280;41637;52.364;9.910;2023-02-28T07:13:06;102464.50;;;-2.68;89.96
55733;BME280;41637;52.364;9.910;2023-02-28T07:15:36;102466.25;;;-2.63;89.79
55733;BME280;41637;52.364;9.910;2023-02-28T07:18:07;102468.82;;;-2.57;89.81
55733;BME280;41637;52.364;9.910;2023-02-28T07:20:34;102465.59;;;-2.48;89.77
55733;BME280;41637;52.364;9.910;2023-02-28T07:23:01;102464.02;;;-2.36;90.19
55733;BME280;41637;52.364;9.910;2023-02-28T07:25:28;102468.80;;;-2.22;90.06
55733;BME280;41637;52.364;9.910;2023-02-28T07:27:56;102470.10;;;-2.08;90.17
55733;BME280;41637;52.364;9.910;2023-02-28T07:30:23;102469.83;;;-1.94;90.28
55733;BME280;41637;52.364;9.910;2023-02-28T07:32:50;102472.71;;;-1.82;89.61
55733;BME280;41637;52.364;9.910;2023-02-28T07:35:17;102473.82;;;-1.74;89.36
55733;BME280;41637;52.364;9.910;2023-02-28T07:37:45;102471.91;;;-1.64;89.28
55733;BME280;41637;52.364;9.910;2023-02-28T07:40:13;102471.84;;;-1.51;89.29
55733;BME280;41637;52.364;9.910;2023-02-28T07:42:41;102475.71;;;-1.38;89.21
55733;BME280;41637;52.364;9.910;2023-02-28T07:45:08;102478.40;;;-1.26;88.82
55733;BME280;41637;52.364;9.910;2023-02-28T07:47:39;102478.98;;;-1.13;88.82
55733;BME280;41637;52.364;9.910;2023-02-28T07:50:07;102475.92;;;-1.00;88.31
55733;BME280;41637;52.364;9.910;2023-02-28T07:52:35;102473.16;;;-0.87;88.05
55733;BME280;41637;52.364;9.910;2023-02-28T07:55:03;102473.98;;;-0.71;88.14
55733;BME280;41637;52.364;9.910;2023-02-28T07:57:31;102474.84;;;-0.57;87.77
55733;BME280;41637;52.364;9.910;2023-02-28T08:00:02;102470.08;;;-0.46;87.14
55733;BME280;41637;52.364;9.910;2023-02-28T08:02:29;102471.23;;;-0.36;86.70
55733;BME280;41637;52.364;9.910;2023-02-28T08:04:56;102469.23;;;-0.25;86.42
55733;BME280;41637;52.364;9.910;2023-02-28T08:07:24;102464.73;;;-0.16;85.51
55733;BME280;41637;52.364;9.910;2023-02-28T08:09:51;102463.70;;;-0.08;85.57
55733;BME280;41637;52.364;9.910;2023-02-28T08:12:18;102461.18;;;0.07;85.75
55733;BME280;41637;52.364;9.910;2023-02-28T08:14:45;102458.88;;;0.20;85.22
55733;BME280;41637;52.364;9.910;2023-02-28T08:17:12;102460.56;;;0.34;84.96
55733;BME280;41637;52.364;9.910;2023-02-28T08:19:39;102465.59;;;0.51;85.24
55733;BME280;41637;52.364;9.910;2023-02-28T08:22:06;102465.07;;;0.67;84.61
55733;BME280;41637;52.364;9.910;2023-02-28T08:24:34;102467.45;;;0.80;83.83
55733;BME280;41637;52.364;9.910;2023-02-28T08:27:01;102466.48;;;0.94;83.43
55733;BME280;41637;52.364;9.910;2023-02-28T08:29:31;102471.88;;;1.09;83.23
55733;BME280;41637;52.364;9.910;2023-02-28T08:31:59;102472.76;;;1.25;82.60
55733;BME280;41637;52.364;9.910;2023-02-28T08:34:26;102474.49;;;1.40;82.53
55733;BME280;41637;52.364;9.910;2023-02-28T08:36:53;102477.63;;;1.55;82.00
55733;BME280;41637;52.364;9.910;2023-02-28T08:39:20;102479.17;;;1.66;80.96
55733;BME280;41637;52.364;9.910;2023-02-28T08:41:47;102478.17;;;1.80;80.76
55733;BME280;41637;52.364;9.910;2023-02-28T08:44:24;102486.34;;;1.99;80.36
55733;BME280;41637;52.364;9.910;2023-02-28T08:46:51;102483.15;;;2.14;79.54
55733;BME280;41637;52.364;9.910;2023-02-28T08:49:19;102484.88;;;2.29;79.11
55733;BME280;41637;52.364;9.910;2023-02-28T08:51:46;102482.88;;;2.40;77.93
55733;BME280;41637;52.364;9.910;2023-02-28T08:54:13;102480.43;;;2.51;77.23
55733;BME280;41637;52.364;9.910;2023-02-28T08:56:42;102485.77;;;2.63;77.09
55733;BME280;41637;52.364;9.910;2023-02-28T09:02:56;102483.81;;;3.00;76.02
55733;BME280;41637;52.364;9.910;2023-02-28T09:05:23;102481.67;;;3.14;75.00
55733;BME280;41637;52.364;9.910;2023-02-28T09:07:50;102482.02;;;3.24;73.13
55733;BME280;41637;52.364;9.910;2023-02-28T09:10:17;102484.96;;;3.31;72.68
55733;BME280;41637;52.364;9.910;2023-02-28T09:12:44;102485.69;;;3.40;71.81
55733;BME280;41637;52.364;9.910;2023-02-28T09:15:13;102485.61;;;3.48;71.19
55733;BME280;41637;52.364;9.910;2023-02-28T09:17:40;102489.83;;;3.57;71.22
55733;BME280;41637;52.364;9.910;2023-02-28T09:20:10;102489.09;;;3.67;70.22
55733;BME280;41637;52.364;9.910;2023-02-28T09:22:37;102486.98;;;3.74;69.47
55733;BME280;41637;52.364;9.910;2023-02-28T09:25:04;102488.23;;;3.79;68.88
55733;BME280;41637;52.364;9.910;2023-02-28T09:27:32;102486.23;;;3.90;69.47
55733;BME280;41637;52.364;9.910;2023-02-28T09:29:59;102486.79;;;4.01;69.55
55733;BME280;41637;52.364;9.910;2023-02-28T09:32:26;102484.67;;;4.14;69.31
55733;BME280;41637;52.364;9.910;2023-02-28T09:34:53;102485.67;;;4.30;68.95
55733;BME280;41637;52.364;9.910;2023-02-28T09:37:20;102485.45;;;4.40;67.43
55733;BME280;41637;52.364;9.910;2023-02-28T09:39:47;102487.25;;;4.48;66.89
55733;BME280;41637;52.364;9.910;2023-02-28T09:42:31;102487.40;;;4.57;66.05
55733;BME280;41637;52.364;9.910;2023-02-28T09:45:01;102482.50;;;4.69;66.16
55733;BME280;41637;52.364;9.910;2023-02-28T09:47:34;102483.41;;;4.77;65.40
55733;BME280;41637;52.364;9.910;2023-02-28T09:50:16;102487.10;;;4.85;65.27
55733;BME280;41637;52.364;9.910;2023-02-28T09:52:46;102488.73;;;4.99;65.41
55733;BME280;41637;52.364;9.910;2023-02-28T09:55:19;102488.84;;;5.06;63.35
55733;BME280;41637;52.364;9.910;2023-02-28T09:57:46;102487.64;;;5.05;61.81
55733;BME280;41637;52.364;9.910;2023-02-28T10:05:27;102487.06;;;5.17;61.90
55733;BME280;41637;52.364;9.910;2023-02-28T10:08:13;102485.41;;;5.21;61.11
55733;BME280;41637;52.364;9.910;2023-02-28T10:10:47;102484.16;;;5.27;61.13
55733;BME280;41637;52.364;9.910;2023-02-28T10:13:43;102485.29;;;5.35;60.23
55733;BME280;41637;52.364;9.910;2023-02-28T10:16:20;102484.45;;;5.34;58.44
55733;BME280;41637;52.364;9.910;2023-02-28T10:18:54;102481.06;;;5.38;58.67
55733;BME280;41637;52.364;9.910;2023-02-28T10:21:31;102481.20;;;5.39;58.85
55733;BME280;41637;52.364;9.910;2023-02-28T10:24:23;102478.01;;;5.39;58.95
55733;BME280;41637;52.364;9.910;2023-02-28T10:26:59;102482.27;;;5.44;58.87
55733;BME280;41637;52.364;9.910;2023-02-28T10:29:27;102481.05;;;5.52;58.46
55733;BME280;41637;52.364;9.910;2023-02-28T10:32:00;102483.91;;;5.62;57.50
55733;BME280;41637;52.364;9.910;2023-02-28T10:34:28;102482.12;;;5.68;56.83
55733;BME280;41637;52.364;9.910;2023-02-28T10:36:55;102483.98;;;5.77;56.50
55733;BME280;41637;52.364;9.910;2023-02-28T10:42:25;102483.20;;;5.95;55.06
55733;BME280;41637;52.364;9.910;2023-02-28T10:45:16;102482.20;;;5.91;54.42
55733;BME280;41637;52.364;9.910;2023-02-28T10:47:53;102482.48;;;5.76;54.01
55733;BME280;41637;52.364;9.910;2023-02-28T10:50:43;102481.23;;;5.65;53.79
55733;BME280;41637;52.364;9.910;2023-02-28T10:56:02;102480.94;;;5.72;54.12
55733;BME280;41637;52.364;9.910;2023-02-28T11:01:45;102481.45;;;6.00;52.74
55733;BME280;41637;52.364;9.910;2023-02-28T11:07:01;102474.02;;;5.87;50.07
55733;BME280;41637;52.364;9.910;2023-02-28T11:09:31;102474.96;;;5.84;50.21
55733;BME280;41637;52.364;9.910;2023-02-28T11:12:02;102479.89;;;5.94;51.34
55733;BME280;41637;52.364;9.910;2023-02-28T11:14:37;102473.52;;;6.08;51.24
55733;BME280;41637;52.364;9.910;2023-02-28T11:17:27;102472.98;;;6.17;51.72
55733;BME280;41637;52.364;9.910;2023-02-28T11:20:01;102465.77;;;6.35;51.86
55733;BME280;41637;52.364;9.910;2023-02-28T11:22:32;102467.87;;;6.54;51.30
55733;BME280;41637;52.364;9.910;2023-02-28T11:25:07;102463.17;;;6.71;50.61
55733;BME280;41637;52.364;9.910;2023-02-28T11:27:50;102462.31;;;6.98;49.88
55733;BME280;41637;52.364;9.910;2023-02-28T11:32:54;102455.17;;;7.39;47.05
55733;BME280;41637;52.364;9.910;2023-02-28T11:35:31;102451.79;;;7.45;47.42
55733;BME280;41637;52.364;9.910;2023-02-28T11:38:01;102448.37;;;7.44;46.75
55733;BME280;41637;52.364;9.910;2023-02-28T11:41:10;102445.70;;;7.39;47.19
55733;BME280;41637;52.364;9.910;2023-02-28T11:43:45;102446.12;;;7.23;47.87
55733;BME280;41637;52.364;9.910;2023-02-28T11:52:01;102437.06;;;7.51;46.23
55733;BME280;41637;52.364;9.910;2023-02-28T12:00:28;102439.63;;;8.47;44.62
55733;BME280;41637;52.364;9.910;2023-02-28T12:03:15;102434.43;;;9.33;43.82
55733;BME280;41637;52.364;9.910;2023-02-28T12:06:01;102430.52;;;10.11;41.97
55733;BME280;41637;52.364;9.910;2023-02-28T12:14:52;102423.91;;;12.16;37.49
55733;BME280;41637;52.364;9.910;2023-02-28T12:17:34;102416.23;;;12.79;35.52
55733;BME280;41637;52.364;9.910;2023-02-28T12:20:17;102418.58;;;13.28;34.58
55733;BME280;41637;52.364;9.910;2023-02-28T12:28:18;102411.92;;;14.53;32.03
55733;BME280;41637;52.364;9.910;2023-02-28T12:31:09;102411.23;;;14.77;32.02
55733;BME280;41637;52.364;9.910;2023-02-28T12:33:45;102414.00;;;14.81;31.55
55733;BME280;41637;52.364;9.910;2023-02-28T12:36:17;102405.69;;;15.11;30.39
55733;BME280;41637;52.364;9.910;2023-02-28T12:38:49;102400.23;;;15.61;29.82
55733;BME280;41637;52.364;9.910;2023-02-28T12:41:21;102400.17;;;16.20;29.00
55733;BME280;41637;52.364;9.910;2023-02-28T12:44:02;102394.80;;;16.98;27.89
55733;BME280;41637;52.364;9.910;2023-02-28T12:46:41;102391.39;;;17.84;27.46
55733;BME280;41637;52.364;9.910;2023-02-28T12:49:15;102388.14;;;18.60;26.61
55733;BME280;41637;52.364;9.910;2023-02-28T12:51:45;102385.52;;;19.02;25.29
55733;BME280;41637;52.364;9.910;2023-02-28T12:54:26;102381.63;;;19.52;25.09
55733;BME280;41637;52.364;9.910;2023-02-28T13:08:03;102356.91;;;21.43;21.81
55733;BME280;41637;52.364;9.910;2023-02-28T13:10:42;102355.52;;;21.71;22.21
55733;BME280;41637;52.364;9.910;2023-02-28T13:13:16;102354.89;;;22.24;21.70
55733;BME280;41637;52.364;9.910;2023-02-28T13:16:10;102347.91;;;22.61;21.06
55733;BME280;41637;52.364;9.910;2023-02-28T13:18:44;102342.17;;;23.15;21.54
55733;BME280;41637;52.364;9.910;2023-02-28T13:21:28;102337.12;;;23.74;20.33
55733;BME280;41637;52.364;9.910;2023-02-28T13:23:59;102333.80;;;23.86;19.72
55733;BME280;41637;52.364;9.910;2023-02-28T13:34:36;102339.30;;;25.04;19.10
55733;BME280;41637;52.364;9.910;2023-02-28T13:39:53;102331.36;;;24.91;18.56
55733;BME280;41637;52.364;9.910;2023-02-28T13:47:41;102324.66;;;26.05;18.47
55733;BME280;41637;52.364;9.910;2023-02-28T13:52:51;102327.79;;;26.43;17.38
55733;BME280;41637;52.364;9.910;2023-02-28T13:55:29;102323.41;;;26.58;17.59
55733;BME280;41637;52.364;9.910;2023-02-28T13:58:09;102320.44;;;26.64;17.08
55733;BME280;41637;52.364;9.910;2023-02-28T14:00:56;102322.98;;;26.72;17.03
55733;BME280;41637;52.364;9.910;2023-02-28T14:06:32;102324.45;;;25.93;17.59
55733;BME280;41637;52.364;9.910;2023-02-28T14:09:25;102324.79;;;26.00;17.61
55733;BME280;41637;52.364;9.910;2023-02-28T14:11:53;102320.63;;;26.06;17.36
55733;BME280;41637;52.364;9.910;2023-02-28T14:17:08;102326.39;;;25.80;17.53
55733;BME280;41637;52.364;9.910;2023-02-28T14:19:39;102322.90;;;25.89;17.30
55733;BME280;41637;52.364;9.910;2023-02-28T14:30:43;102324.65;;;25.71;17.12
55733;BME280;41637;52.364;9.910;2023-02-28T14:36:31;102322.14;;;25.18;17.56
55733;BME280;41637;52.364;9.910;2023-02-28T14:39:07;102325.17;;;24.52;18.09
55733;BME280;41637;52.364;9.910;2023-02-28T14:41:39;102323.64;;;24.13;18.35
55733;BME280;41637;52.364;9.910;2023-02-28T14:44:21;102318.70;;;23.73;18.55
55733;BME280;41637;52.364;9.910;2023-02-28T14:46:53;102319.37;;;23.46;18.93
55733;BME280;41637;52.364;9.910;2023-02-28T14:49:30;102320.77;;;23.54;19.19
55733;BME280;41637;52.364;9.910;2023-02-28T14:52:19;102317.73;;;23.47;19.13
55733;BME280;41637;52.364;9.910;2023-02-28T14:54:51;102323.73;;;23.42;19.19
55733;BME280;41637;52.364;9.910;2023-02-28T14:57:33;102321.34;;;23.68;18.72
55733;BME280;41637;52.364;9.910;2023-02-28T15:00:14;102317.27;;;23.76;18.55
55733;BME280;41637;52.364;9.910;2023-02-28T15:02:42;102314.72;;;23.72;18.60
55733;BME280;41637;52.364;9.910;2023-02-28T15:07:39;102319.77;;;24.31;18.09
55733;BME280;41637;52.364;9.910;2023-02-28T15:15:17;102314.70;;;24.54;17.66
55733;BME280;41637;52.364;9.910;2023-02-28T15:17:48;102312.17;;;24.47;18.03
55733;BME280;41637;52.364;9.910;2023-02-28T15:20:16;102309.40;;;24.33;17.84
55733;BME280;41637;52.364;9.910;2023-02-28T15:22:46;102313.48;;;23.67;18.03
55733;BME280;41637;52.364;9.910;2023-02-28T15:25:18;102313.32;;;23.46;18.59
55733;BME280;41637;52.364;9.910;2023-02-28T15:27:50;102309.73;;;23.07;18.74
55733;BME280;41637;52.364;9.910;2023-02-28T15:30:20;102311.64;;;22.46;18.99
55733;BME280;41637;52.364;9.910;2023-02-28T15:33:19;102314.27;;;21.79;19.58
55733;BME280;41637;52.364;9.910;2023-02-28T15:35:47;102312.14;;;21.46;20.23